Time;durP1;ratioP1;P1;durP2;ratioP2;P2;SDS_P1;SDS_P2;PMS_P1;PMS_P2;Temp;Humidity;BMP_temperature;BMP_pressure;BME280_temperature;BME280_humidity;BME280_pressure;Samples;Min_cycle;Max_cycle;Signal;HPM_P1;HPM_P2
2024/01/08 00:00:21;;;;;;;78.88;17.55;;;;;;;;;;5117310;28;20124;-52
2024/01/08 00:02:48;;;;;;;59.95;18.05;;;;;;;;;;5121458;28;20065;-60
2024/01/08 00:05:15;;;;;;;67.22;16.45;;;;;;;;;;5123593;28;20023;-54
2024/01/08 00:07:41;;;;;;;58.13;15.50;;;;;;;;;;5122813;28;20342;-54
2024/01/08 00:10:08;;;;;;;55.22;15.98;;;;;;;;;;5123522;28;20030;-51
2024/01/08 00:12:35;;;;;;;63.25;15.30;;;;;;;;;;5122927;28;20018;-57
2024/01/08 00:15:03;;;;;;;63.30;15.30;;;;;;;;;;5121847;28;20092;-48
2024/01/08 00:17:29;;;;;;;84.80;16.30;;;;;;;;;;5124910;28;20034;-48
2024/01/08 00:19:56;;;;;;;61.05;14.32;;;;;;;;;;5122334;28;20076;-52
2024/01/08 00:22:22;;;;;;;51.97;14.38;;;;;;;;;;5114358;28;20091;-54
2024/01/08 00:24:49;;;;;;;49.97;13.98;;;;;;;;;;5118145;28;20090;-51
2024/01/08 00:27:16;;;;;;;90.45;17.52;;;;;;;;;;5115034;28;20056;-48
2024/01/08 00:29:43;;;;;;;46.13;13.25;;;;;;;;;;5117077;28;20346;-47
2024/01/08 00:32:09;;;;;;;44.50;13.27;;;;;;;;;;5115226;28;20177;-51
2024/01/08 00:34:36;;;;;;;42.25;12.70;;;;;;;;;;5118567;28;20347;-50
2024/01/08 00:37:03;;;;;;;40.60;13.18;;;;;;;;;;5118020;28;20031;-60
2024/01/08 00:39:30;;;;;;;36.65;12.07;;;;;;;;;;5116634;28;20249;-56
2024/01/08 00:41:56;;;;;;;32.05;12.27;;;;;;;;;;5116102;28;20015;-54
2024/01/08 00:44:23;;;;;;;29.20;11.65;;;;;;;;;;5114636;28;20031;-54
2024/01/08 00:46:49;;;;;;;25.23;11.63;;;;;;;;;;5114478;28;20020;-55
2024/01/08 00:49:16;;;;;;;31.30;10.93;;;;;;;;;;5116062;28;20101;-52
2024/01/08 00:51:43;;;;;;;24.27;10.48;;;;;;;;;;5116628;28;20027;-52
2024/01/08 00:54:09;;;;;;;20.30;10.55;;;;;;;;;;5118035;28;20012;-64
2024/01/08 00:56:36;;;;;;;32.40;10.85;;;;;;;;;;5127141;28;20371;-64
2024/01/08 00:59:03;;;;;;;38.63;11.35;;;;;;;;;;5127150;28;20034;-54
2024/01/08 01:01:29;;;;;;;23.67;10.95;;;;;;;;;;5123383;28;20031;-58
2024/01/08 01:03:56;;;;;;;22.77;10.88;;;;;;;;;;5113877;28;20016;-57
2024/01/08 01:06:23;;;;;;;23.27;9.82;;;;;;;;;;5112887;28;20034;-51
2024/01/08 01:08:49;;;;;;;47.33;11.57;;;;;;;;;;5113837;28;20339;-50
2024/01/08 01:11:16;;;;;;;32.25;10.57;;;;;;;;;;5117673;28;20261;-60
2024/01/08 01:13:43;;;;;;;18.38;9.88;;;;;;;;;;5115943;28;20016;-60
2024/01/08 01:16:09;;;;;;;19.63;10.02;;;;;;;;;;5117183;28;20064;-54
2024/01/08 01:18:36;;;;;;;18.73;10.20;;;;;;;;;;5115575;28;20016;-56
2024/01/08 01:21:02;;;;;;;19.30;10.60;;;;;;;;;;5115813;28;20019;-60
2024/01/08 01:23:29;;;;;;;21.40;10.07;;;;;;;;;;5112422;28;20083;-55
2024/01/08 01:25:55;;;;;;;20.20;10.40;;;;;;;;;;5116916;28;20035;-59
2024/01/08 01:28:22;;;;;;;18.27;10.25;;;;;;;;;;5114371;28;20057;-53
2024/01/08 01:30:49;;;;;;;18.15;10.35;;;;;;;;;;5114073;28;20070;-55
2024/01/08 01:33:15;;;;;;;17.42;10.57;;;;;;;;;;5114596;28;20050;-56
2024/01/08 01:35:42;;;;;;;19.63;10.00;;;;;;;;;;5116858;28;20023;-57
2024/01/08 01:38:08;;;;;;;24.50;10.70;;;;;;;;;;5113866;28;20020;-54
2024/01/08 01:40:35;;;;;;;19.10;9.95;;;;;;;;;;5121148;28;20023;-56
2024/01/08 01:43:01;;;;;;;16.60;10.38;;;;;;;;;;5116960;28;20064;-61
2024/01/08 01:45:28;;;;;;;15.38;11.10;;;;;;;;;;5115750;28;20027;-55
2024/01/08 01:47:55;;;;;;;18.15;10.55;;;;;;;;;;5114657;28;20083;-48
2024/01/08 01:50:22;;;;;;;19.52;9.77;;;;;;;;;;5114546;28;20087;-53
2024/01/08 01:52:49;;;;;;;15.95;9.90;;;;;;;;;;5114164;28;20016;-50
2024/01/08 01:55:16;;;;;;;19.70;10.43;;;;;;;;;;5114198;28;20016;-57
2024/01/08 01:57:43;;;;;;;19.48;10.07;;;;;;;;;;5115399;28;20095;-55
2024/01/08 02:00:10;;;;;;;23.27;10.52;;;;;;;;;;5111330;28;20319;-53
2024/01/08 02:02:38;;;;;;;19.67;10.35;;;;;;;;;;5114272;28;20023;-53
2024/01/08 02:05:05;;;;;;;18.10;9.52;;;;;;;;;;5122501;28;20221;-50
2024/01/08 02:07:32;;;;;;;13.85;9.25;;;;;;;;;;5119812;28;20035;-53
2024/01/08 02:09:58;;;;;;;21.38;10.40;;;;;;;;;;5123748;28;20312;-54
2024/01/08 02:12:26;;;;;;;22.40;10.10;;;;;;;;;;5118742;28;20309;-48
2024/01/08 02:14:52;;;;;;;27.27;10.65;;;;;;;;;;5125244;28;20015;-55
2024/01/08 02:17:19;;;;;;;23.63;10.15;;;;;;;;;;5124982;28;20304;-50
2024/01/08 02:19:46;;;;;;;20.48;10.20;;;;;;;;;;5121471;28;20016;-53
2024/01/08 02:22:12;;;;;;;15.70;9.55;;;;;;;;;;5120848;28;20023;-50
2024/01/08 02:24:40;;;;;;;15.48;9.57;;;;;;;;;;5125313;28;20024;-49
2024/01/08 02:27:06;;;;;;;20.73;10.18;;;;;;;;;;5122847;28;20082;-49
2024/01/08 02:29:33;;;;;;;16.63;9.23;;;;;;;;;;5113952;28;20023;-51
2024/01/08 02:32:00;;;;;;;14.50;9.18;;;;;;;;;;5118409;28;20060;-48
2024/01/08 02:34:27;;;;;;;20.58;10.20;;;;;;;;;;5120751;28;20043;-54
2024/01/08 02:36:53;;;;;;;21.65;10.18;;;;;;;;;;5119380;28;20032;-53
2024/01/08 02:39:20;;;;;;;24.27;10.20;;;;;;;;;;5117762;28;20043;-52
2024/01/08 02:41:46;;;;;;;19.50;9.38;;;;;;;;;;5121879;28;20026;-52
2024/01/08 02:44:13;;;;;;;19.98;9.75;;;;;;;;;;5124645;28;20031;-50
2024/01/08 02:46:40;;;;;;;17.30;9.55;;;;;;;;;;5124442;28;20070;-53
2024/01/08 02:49:06;;;;;;;25.77;10.27;;;;;;;;;;5124602;28;20022;-49
2024/01/08 02:51:33;;;;;;;19.08;9.30;;;;;;;;;;5124335;28;20064;-50
2024/01/08 02:53:59;;;;;;;15.57;9.38;;;;;;;;;;5122345;28;20079;-47
2024/01/08 02:56:26;;;;;;;17.05;9.65;;;;;;;;;;5117845;28;20016;-47
2024/01/08 02:58:52;;;;;;;15.68;9.32;;;;;;;;;;5123793;28;20295;-52
2024/01/08 03:01:19;;;;;;;17.02;9.50;;;;;;;;;;5120014;28;20093;-55
2024/01/08 03:03:45;;;;;;;17.08;8.75;;;;;;;;;;5123111;28;20027;-55
2024/01/08 03:06:12;;;;;;;14.77;9.02;;;;;;;;;;5121298;28;20049;-52
2024/01/08 03:08:39;;;;;;;14.77;9.40;;;;;;;;;;5116531;28;20038;-54
2024/01/08 03:11:05;;;;;;;15.85;9.65;;;;;;;;;;5121857;28;20011;-50
2024/01/08 03:13:32;;;;;;;18.05;9.30;;;;;;;;;;5120102;28;20023;-52
2024/01/08 03:15:58;;;;;;;17.88;8.93;;;;;;;;;;5119676;28;20011;-49
2024/01/08 03:18:25;;;;;;;15.27;9.13;;;;;;;;;;5123885;28;20027;-49
2024/01/08 03:20:52;;;;;;;13.30;9.13;;;;;;;;;;5120852;28;20031;-47
2024/01/08 03:23:18;;;;;;;14.05;9.20;;;;;;;;;;5122520;28;20024;-58
2024/01/08 03:25:45;;;;;;;14.48;9.48;;;;;;;;;;5118785;28;20027;-55
2024/01/08 03:28:11;;;;;;;15.63;9.23;;;;;;;;;;5123591;28;20104;-52
2024/01/08 03:30:38;;;;;;;15.43;9.55;;;;;;;;;;5120191;28;20026;-56
2024/01/08 03:33:05;;;;;;;14.77;9.18;;;;;;;;;;5119438;28;20314;-53
2024/01/08 03:35:31;;;;;;;20.42;9.90;;;;;;;;;;5119350;28;20024;-49
2024/01/08 03:37:58;;;;;;;19.67;9.25;;;;;;;;;;5115080;28;20342;-54
2024/01/08 03:40:24;;;;;;;15.75;9.07;;;;;;;;;;5118952;28;20027;-55
2024/01/08 03:42:51;;;;;;;15.27;9.15;;;;;;;;;;5118994;28;20026;-51
2024/01/08 03:45:17;;;;;;;19.20;9.32;;;;;;;;;;5124142;28;20024;-53
2024/01/08 03:47:44;;;;;;;17.20;9.00;;;;;;;;;;5123516;28;20103;-51
2024/01/08 03:50:11;;;;;;;17.95;9.60;;;;;;;;;;5124565;28;20012;-55
2024/01/08 03:52:37;;;;;;;15.52;9.18;;;;;;;;;;5126659;28;20115;-58
2024/01/08 03:55:06;;;;;;;18.83;9.50;;;;;;;;;;5120802;27;20356;-55
2024/01/08 03:57:32;;;;;;;18.38;10.25;;;;;;;;;;5126452;28;20022;-52
2024/01/08 03:59:59;;;;;;;13.40;10.07;;;;;;;;;;5128205;28;20041;-57
2024/01/08 04:02:26;;;;;;;20.20;10.77;;;;;;;;;;5127517;28;20083;-55
2024/01/08 04:04:52;;;;;;;16.80;10.40;;;;;;;;;;5127929;28;20019;-49
2024/01/08 04:07:19;;;;;;;14.07;10.45;;;;;;;;;;5124778;27;20027;-54
2024/01/08 04:09:45;;;;;;;16.33;10.32;;;;;;;;;;5127298;28;20071;-56
2024/01/08 04:12:13;;;;;;;19.65;10.75;;;;;;;;;;5127348;28;20012;-54
2024/01/08 04:14:39;;;;;;;19.38;10.20;;;;;;;;;;5125273;28;20023;-55
2024/01/08 04:17:09;;;;;;;15.85;10.18;;;;;;;;;;5126980;28;20012;-56
2024/01/08 04:19:35;;;;;;;21.80;10.85;;;;;;;;;;5125205;28;20348;-57
2024/01/08 04:22:02;;;;;;;21.42;10.27;;;;;;;;;;5121867;28;20019;-51
2024/01/08 04:24:29;;;;;;;18.92;10.20;;;;;;;;;;5125055;28;20299;-55
2024/01/08 04:26:55;;;;;;;21.20;10.13;;;;;;;;;;5127179;28;20052;-58
2024/01/08 04:29:22;;;;;;;14.68;8.98;;;;;;;;;;5127169;28;20084;-56
2024/01/08 04:31:48;;;;;;;13.50;10.07;;;;;;;;;;5127005;28;20035;-56
2024/01/08 04:34:15;;;;;;;15.70;9.63;;;;;;;;;;5124743;28;20026;-56
2024/01/08 04:36:45;;;;;;;14.98;9.07;;;;;;;;;;5123234;28;20012;-56
2024/01/08 04:39:12;;;;;;;14.60;9.35;;;;;;;;;;5124759;28;20019;-57
2024/01/08 04:41:39;;;;;;;11.70;9.25;;;;;;;;;;5117989;28;20130;-54
2024/01/08 04:44:06;;;;;;;16.38;9.15;;;;;;;;;;5123960;28;20325;-47
2024/01/08 04:46:32;;;;;;;14.90;9.77;;;;;;;;;;5126597;28;20027;-49
2024/01/08 04:48:59;;;;;;;15.35;9.25;;;;;;;;;;5126956;28;20020;-53
2024/01/08 04:51:25;;;;;;;17.88;9.93;;;;;;;;;;5126726;28;20016;-55
2024/01/08 04:53:52;;;;;;;12.65;9.95;;;;;;;;;;5126682;28;20106;-53
2024/01/08 04:56:27;;;;;;;18.95;9.35;;;;;;;;;;5123022;28;20212;-52
2024/01/08 04:58:54;;;;;;;18.73;9.68;;;;;;;;;;5126708;28;20020;-53
2024/01/08 05:01:21;;;;;;;16.90;9.77;;;;;;;;;;5126318;28;20024;-54
2024/01/08 05:03:48;;;;;;;14.77;9.48;;;;;;;;;;5122148;28;20035;-58
2024/01/08 05:06:15;;;;;;;13.77;9.68;;;;;;;;;;5126547;28;20035;-56
2024/01/08 05:08:41;;;;;;;13.10;9.13;;;;;;;;;;5126305;28;20023;-47
2024/01/08 05:11:08;;;;;;;14.95;8.90;;;;;;;;;;5126382;28;20250;-55
2024/01/08 05:13:35;;;;;;;12.40;9.13;;;;;;;;;;5125417;28;20012;-58
2024/01/08 05:16:02;;;;;;;13.35;8.95;;;;;;;;;;5123390;28;20028;-55
2024/01/08 05:18:29;;;;;;;10.88;8.43;;;;;;;;;;5126289;28;20050;-55
2024/01/08 05:20:56;;;;;;;13.05;9.13;;;;;;;;;;5123602;28;20060;-57
2024/01/08 05:23:22;;;;;;;13.20;9.25;;;;;;;;;;5126072;28;20285;-59
2024/01/08 05:25:49;;;;;;;14.18;8.95;;;;;;;;;;5126140;28;20216;-56
2024/01/08 05:28:16;;;;;;;14.38;9.02;;;;;;;;;;5123134;28;20043;-54
2024/01/08 05:30:43;;;;;;;12.38;9.18;;;;;;;;;;5125903;28;20064;-56
2024/01/08 05:33:09;;;;;;;12.52;9.10;;;;;;;;;;5125966;28;20095;-57
2024/01/08 05:35:37;;;;;;;10.95;9.18;;;;;;;;;;5125913;28;20016;-58
2024/01/08 05:38:04;;;;;;;13.55;9.55;;;;;;;;;;5125720;28;20053;-54
2024/01/08 05:40:30;;;;;;;14.63;8.77;;;;;;;;;;5125832;28;20020;-57
2024/01/08 05:42:57;;;;;;;15.10;8.65;;;;;;;;;;5125642;28;20011;-55
2024/01/08 05:45:23;;;;;;;12.88;8.50;;;;;;;;;;5125618;28;20089;-52
2024/01/08 05:47:50;;;;;;;12.80;8.70;;;;;;;;;;5125549;28;20227;-54
2024/01/08 05:50:17;;;;;;;12.90;9.13;;;;;;;;;;5126075;28;20051;-53
2024/01/08 05:52:44;;;;;;;11.55;9.07;;;;;;;;;;5125422;28;20016;-59
2024/01/08 05:55:14;;;;;;;14.48;9.10;;;;;;;;;;5125370;28;20031;-56
2024/01/08 05:57:40;;;;;;;13.07;8.77;;;;;;;;;;5125478;28;20083;-55
2024/01/08 06:00:07;;;;;;;11.65;8.60;;;;;;;;;;5124208;28;20049;-57
2024/01/08 06:02:34;;;;;;;11.77;8.57;;;;;;;;;;5118096;28;20024;-51
2024/01/08 06:05:00;;;;;;;12.77;9.02;;;;;;;;;;5123724;28;20087;-52
2024/01/08 06:07:27;;;;;;;14.88;8.52;;;;;;;;;;5125011;28;20027;-56
2024/01/08 06:09:53;;;;;;;13.05;8.82;;;;;;;;;;5125528;28;20016;-50
2024/01/08 06:12:20;;;;;;;14.50;9.00;;;;;;;;;;5112826;28;20024;-51
2024/01/08 06:14:48;;;;;;;10.02;8.40;;;;;;;;;;5116825;28;20079;-52
2024/01/08 06:17:15;;;;;;;12.05;8.38;;;;;;;;;;5125486;28;20087;-54
2024/01/08 06:19:42;;;;;;;11.85;8.30;;;;;;;;;;5109961;28;20083;-52
2024/01/08 06:22:08;;;;;;;10.68;8.85;;;;;;;;;;5104992;28;20087;-51
2024/01/08 06:24:35;;;;;;;11.18;8.75;;;;;;;;;;5105388;28;20035;-57
2024/01/08 06:27:01;;;;;;;12.63;8.40;;;;;;;;;;5104900;28;20044;-56
2024/01/08 06:29:28;;;;;;;11.88;8.63;;;;;;;;;;5105118;28;20031;-56
2024/01/08 06:31:55;;;;;;;9.82;8.07;;;;;;;;;;5105015;28;20083;-53
2024/01/08 06:34:21;;;;;;;12.05;8.65;;;;;;;;;;5104276;28;20034;-55
2024/01/08 06:36:48;;;;;;;11.75;8.50;;;;;;;;;;5114562;28;20035;-55
2024/01/08 06:39:14;;;;;;;11.98;8.90;;;;;;;;;;5110333;28;20020;-54
2024/01/08 06:41:41;;;;;;;10.75;8.73;;;;;;;;;;5108948;28;20024;-53
2024/01/08 06:44:08;;;;;;;13.20;8.27;;;;;;;;;;5108370;28;20027;-54
2024/01/08 06:46:34;;;;;;;12.32;8.30;;;;;;;;;;5104855;28;20027;-53
2024/01/08 06:49:01;;;;;;;9.93;8.70;;;;;;;;;;5102867;28;20024;-56
2024/01/08 06:51:27;;;;;;;11.45;8.85;;;;;;;;;;5112431;28;20015;-53
2024/01/08 06:53:54;;;;;;;11.55;8.55;;;;;;;;;;5119217;28;20035;-54
2024/01/08 06:56:20;;;;;;;11.07;8.35;;;;;;;;;;5125160;28;20032;-50
2024/01/08 06:58:47;;;;;;;13.00;8.55;;;;;;;;;;5125101;28;20296;-55
2024/01/08 07:01:18;;;;;;;14.02;8.57;;;;;;;;;;5115771;28;20023;-54
2024/01/08 07:03:45;;;;;;;9.73;8.35;;;;;;;;;;5124925;28;20024;-54
2024/01/08 07:06:11;;;;;;;12.55;8.63;;;;;;;;;;5124705;28;20080;-52
2024/01/08 07:08:38;;;;;;;11.80;8.25;;;;;;;;;;5124566;28;20024;-49
2024/01/08 07:11:04;;;;;;;10.70;8.50;;;;;;;;;;5117702;28;20024;-54
2024/01/08 07:13:31;;;;;;;12.23;8.20;;;;;;;;;;5104164;28;20112;-47
2024/01/08 07:15:58;;;;;;;11.30;8.57;;;;;;;;;;5103929;28;20043;-59
2024/01/08 07:18:24;;;;;;;10.88;8.20;;;;;;;;;;5103987;28;20020;-50
2024/01/08 07:20:51;;;;;;;12.98;8.52;;;;;;;;;;5104145;28;20091;-49
2024/01/08 07:23:17;;;;;;;10.80;8.68;;;;;;;;;;5103967;28;20035;-50
2024/01/08 07:25:44;;;;;;;9.88;7.90;;;;;;;;;;5103606;28;20024;-52
2024/01/08 07:28:11;;;;;;;10.75;8.43;;;;;;;;;;5103774;28;20332;-48
2024/01/08 07:30:38;;;;;;;11.20;7.82;;;;;;;;;;5112757;28;20246;-49
2024/01/08 07:33:05;;;;;;;9.93;8.50;;;;;;;;;;5103925;28;20013;-56
2024/01/08 07:35:32;;;;;;;10.30;8.75;;;;;;;;;;5103963;28;20023;-51
2024/01/08 07:37:58;;;;;;;10.38;8.73;;;;;;;;;;5104026;28;20026;-54
2024/01/08 07:40:26;;;;;;;12.70;8.65;;;;;;;;;;5110654;28;20027;-49
2024/01/08 07:42:56;;;;;;;9.43;8.50;;;;;;;;;;5124603;28;20249;-50
2024/01/08 07:45:23;;;;;;;11.98;8.85;;;;;;;;;;5124308;28;20028;-50
2024/01/08 07:47:50;;;;;;;10.07;8.18;;;;;;;;;;5124164;28;20035;-51
2024/01/08 07:50:17;;;;;;;11.55;8.50;;;;;;;;;;5124735;28;20061;-57
2024/01/08 07:52:44;;;;;;;11.63;8.98;;;;;;;;;;5124100;28;20087;-49
2024/01/08 07:55:10;;;;;;;10.60;8.60;;;;;;;;;;5119641;28;20024;-49
2024/01/08 07:57:37;;;;;;;11.55;8.35;;;;;;;;;;5103754;28;20028;-54
2024/01/08 08:00:09;;;;;;;11.43;8.60;;;;;;;;;;5104127;28;20027;-60
2024/01/08 08:02:37;;;;;;;11.27;9.05;;;;;;;;;;5103754;28;20028;-56
2024/01/08 08:05:04;;;;;;;9.50;8.13;;;;;;;;;;5104217;28;20295;-55
2024/01/08 08:07:31;;;;;;;11.93;8.75;;;;;;;;;;5103407;28;20031;-54
2024/01/08 08:09:57;;;;;;;10.55;8.88;;;;;;;;;;5121999;27;20024;-57
2024/01/08 08:12:24;;;;;;;11.38;8.55;;;;;;;;;;5103799;28;20023;-55
2024/01/08 08:14:50;;;;;;;10.55;8.52;;;;;;;;;;5103935;28;20043;-57
2024/01/08 08:17:17;;;;;;;12.45;8.32;;;;;;;;;;5103680;28;20042;-51
2024/01/08 08:19:45;;;;;;;10.68;8.30;;;;;;;;;;5104448;28;20016;-49
2024/01/08 08:22:12;;;;;;;11.52;8.27;;;;;;;;;;5123801;28;20228;-53
2024/01/08 08:24:39;;;;;;;11.05;8.35;;;;;;;;;;5106891;28;20016;-57
2024/01/08 08:27:09;;;;;;;9.75;8.02;;;;;;;;;;5106744;28;20358;-51
2024/01/08 08:29:37;;;;;;;11.75;7.78;;;;;;;;;;5133427;28;20055;-49
2024/01/08 08:32:05;;;;;;;8.80;7.88;;;;;;;;;;5113231;28;20019;-52
2024/01/08 08:34:31;;;;;;;11.05;8.23;;;;;;;;;;5105673;28;20051;-50
2024/01/08 08:36:58;;;;;;;11.50;8.15;;;;;;;;;;5108690;27;20035;-56
2024/01/08 08:39:24;;;;;;;12.90;7.85;;;;;;;;;;5136399;27;20027;-51
2024/01/08 08:41:51;;;;;;;12.57;7.68;;;;;;;;;;5107786;28;20093;-53
2024/01/08 08:44:18;;;;;;;9.30;7.45;;;;;;;;;;5107435;28;20020;-49
2024/01/08 08:46:45;;;;;;;9.20;7.35;;;;;;;;;;5124740;27;20032;-51
2024/01/08 08:49:13;;;;;;;10.02;7.30;;;;;;;;;;5114679;27;20140;-55
2024/01/08 08:51:40;;;;;;;9.95;7.53;;;;;;;;;;5122743;28;20023;-50
2024/01/08 08:54:07;;;;;;;8.68;7.57;;;;;;;;;;5122182;28;20023;-55
2024/01/08 08:56:34;;;;;;;9.20;7.40;;;;;;;;;;5106768;28;20023;-56
2024/01/08 08:59:01;;;;;;;10.13;7.40;;;;;;;;;;5106840;28;20326;-49
2024/01/08 09:01:28;;;;;;;9.48;7.70;;;;;;;;;;5106809;28;20320;-49
2024/01/08 09:03:55;;;;;;;8.35;7.30;;;;;;;;;;5106861;28;20091;-47
2024/01/08 09:06:27;;;;;;;11.88;7.30;;;;;;;;;;5106823;28;20254;-49
2024/01/08 09:08:54;;;;;;;11.48;7.13;;;;;;;;;;5106995;28;20070;-50
2024/01/08 09:11:21;;;;;;;13.27;7.45;;;;;;;;;;5106548;28;20031;-52
2024/01/08 09:13:48;;;;;;;9.45;7.20;;;;;;;;;;5106531;28;20024;-50
2024/01/08 09:16:15;;;;;;;8.40;7.03;;;;;;;;;;5112419;27;20019;-55
2024/01/08 09:18:42;;;;;;;9.13;6.75;;;;;;;;;;5126902;28;20051;-49
2024/01/08 09:21:09;;;;;;;8.82;7.32;;;;;;;;;;5126836;28;20047;-57
2024/01/08 09:23:36;;;;;;;9.98;7.25;;;;;;;;;;5126973;28;20027;-54
2024/01/08 09:26:04;;;;;;;14.75;7.13;;;;;;;;;;5126636;28;20031;-56
2024/01/08 09:28:31;;;;;;;12.18;7.22;;;;;;;;;;5126344;28;20093;-48
2024/01/08 09:30:57;;;;;;;9.85;7.00;;;;;;;;;;5126674;28;20024;-47
2024/01/08 09:33:24;;;;;;;10.45;6.82;;;;;;;;;;5126631;28;20039;-47
2024/01/08 09:35:51;;;;;;;8.60;6.88;;;;;;;;;;5126338;28;20057;-55
2024/01/08 09:38:17;;;;;;;10.52;6.80;;;;;;;;;;5126474;28;20020;-53
2024/01/08 09:40:44;;;;;;;8.80;6.80;;;;;;;;;;5126427;28;20024;-53
2024/01/08 09:43:12;;;;;;;9.95;7.38;;;;;;;;;;5126193;28;20023;-50
2024/01/08 09:45:53;;;;;;;9.48;6.72;;;;;;;;;;5126389;28;20026;-53
2024/01/08 09:48:20;;;;;;;9.95;7.18;;;;;;;;;;5125845;28;20038;-52
2024/01/08 09:50:47;;;;;;;9.10;6.80;;;;;;;;;;5126025;28;20083;-50
2024/01/08 09:53:15;;;;;;;9.57;6.97;;;;;;;;;;5125992;28;20059;-52
2024/01/08 09:55:44;;;;;;;7.00;6.28;;;;;;;;;;5126070;28;20334;-50
2024/01/08 09:58:10;;;;;;;8.07;6.30;;;;;;;;;;5125933;28;20212;-49
2024/01/08 10:00:37;;;;;;;9.32;6.35;;;;;;;;;;5126013;28;20027;-52
2024/01/08 10:03:04;;;;;;;9.65;6.55;;;;;;;;;;5125867;28;20020;-49
2024/01/08 10:05:33;;;;;;;9.10;6.45;;;;;;;;;;5125770;28;20031;-53
2024/01/08 10:08:02;;;;;;;9.95;6.15;;;;;;;;;;5125806;28;20019;-51
2024/01/08 10:10:29;;;;;;;8.18;6.55;;;;;;;;;;5125891;28;20019;-50
2024/01/08 10:12:56;;;;;;;9.32;6.13;;;;;;;;;;5125627;28;20306;-52
2024/01/08 10:15:23;;;;;;;10.15;5.80;;;;;;;;;;5125711;28;20023;-50
2024/01/08 10:17:51;;;;;;;10.60;5.82;;;;;;;;;;5125574;28;20020;-49
2024/01/08 10:20:18;;;;;;;8.07;5.70;;;;;;;;;;5125492;28;20034;-47
2024/01/08 10:22:45;;;;;;;8.98;5.50;;;;;;;;;;5125655;28;20024;-48
2024/01/08 10:25:12;;;;;;;7.85;6.00;;;;;;;;;;5126077;28;20334;-47
2024/01/08 10:27:39;;;;;;;11.18;6.22;;;;;;;;;;5125166;28;20062;-53
2024/01/08 10:30:06;;;;;;;11.48;6.05;;;;;;;;;;5126022;28;20200;-54
2024/01/08 10:32:33;;;;;;;15.38;6.63;;;;;;;;;;5125303;28;20023;-60
2024/01/08 10:35:00;;;;;;;15.73;6.78;;;;;;;;;;5125658;28;20016;-53
2024/01/08 10:37:27;;;;;;;15.70;6.68;;;;;;;;;;5125270;28;20315;-47
2024/01/08 10:39:54;;;;;;;12.82;6.60;;;;;;;;;;5125203;28;20033;-50
2024/01/08 10:42:21;;;;;;;12.93;6.18;;;;;;;;;;5125187;28;20020;-49
2024/01/08 10:44:48;;;;;;;13.88;6.72;;;;;;;;;;5125583;28;20027;-54
2024/01/08 10:47:18;;;;;;;8.52;5.90;;;;;;;;;;5125074;28;20117;-54
2024/01/08 10:49:53;;;;;;;9.35;5.82;;;;;;;;;;5125315;28;20032;-54
2024/01/08 10:52:26;;;;;;;11.75;6.25;;;;;;;;;;5123815;28;20039;-54
2024/01/08 10:55:00;;;;;;;14.20;6.38;;;;;;;;;;5125232;28;20066;-53
2024/01/08 10:57:42;;;;;;;16.92;6.60;;;;;;;;;;5124989;28;20016;-55
2024/01/08 11:00:09;;;;;;;18.65;7.13;;;;;;;;;;5124003;28;20316;-54
2024/01/08 11:02:37;;;;;;;16.15;6.90;;;;;;;;;;5124865;28;20030;-56
2024/01/08 11:05:08;;;;;;;19.92;6.40;;;;;;;;;;5125271;28;20319;-57
2024/01/08 11:07:41;;;;;;;28.55;8.02;;;;;;;;;;5124600;28;20035;-57
2024/01/08 11:10:09;;;;;;;31.17;7.70;;;;;;;;;;5125187;28;20016;-56
2024/01/08 11:13:03;;;;;;;18.35;6.35;;;;;;;;;;5124649;28;20027;-54
2024/01/08 11:15:29;;;;;;;19.77;6.68;;;;;;;;;;5121917;28;20044;-49
2024/01/08 11:18:03;;;;;;;21.52;6.72;;;;;;;;;;5124361;28;20024;-53
2024/01/08 11:20:45;;;;;;;23.55;6.90;;;;;;;;;;5124622;28;20028;-55
2024/01/08 11:23:30;;;;;;;17.73;6.97;;;;;;;;;;5124405;28;20268;-59
2024/01/08 11:25:56;;;;;;;19.95;7.47;;;;;;;;;;5124629;28;20059;-58
2024/01/08 11:28:24;;;;;;;23.35;7.90;;;;;;;;;;5124289;28;20040;-59
2024/01/08 11:30:58;;;;;;;20.33;8.05;;;;;;;;;;5124499;28;20026;-57
2024/01/08 11:33:47;;;;;;;28.15;10.25;;;;;;;;;;5124370;28;20049;-58
2024/01/08 11:36:18;;;;;;;21.58;11.60;;;;;;;;;;5083507;28;20026;-52
2024/01/08 11:39:02;;;;;;;16.85;10.00;;;;;;;;;;5124498;28;20031;-57
2024/01/08 11:41:28;;;;;;;14.68;8.95;;;;;;;;;;5123302;28;20012;-53
2024/01/08 11:43:56;;;;;;;17.50;8.77;;;;;;;;;;5124576;28;20038;-49
2024/01/08 11:46:22;;;;;;;19.38;8.27;;;;;;;;;;5124131;28;20027;-49
2024/01/08 11:48:49;;;;;;;15.05;7.70;;;;;;;;;;5124417;28;20038;-55
2024/01/08 11:51:15;;;;;;;16.20;7.63;;;;;;;;;;5124266;28;20057;-55
2024/01/08 11:53:43;;;;;;;23.88;10.80;;;;;;;;;;5124247;28;20083;-57
2024/01/08 11:56:10;;;;;;;24.40;14.02;;;;;;;;;;5124348;28;20207;-57
2024/01/08 11:58:37;;;;;;;25.63;16.60;;;;;;;;;;5124244;28;20038;-57
2024/01/08 12:01:15;;;;;;;26.40;14.90;;;;;;;;;;5124052;28;20051;-56
2024/01/08 12:03:41;;;;;;;24.42;15.27;;;;;;;;;;5124314;28;20092;-48
2024/01/08 12:06:08;;;;;;;24.35;15.00;;;;;;;;;;5124166;28;20025;-49
2024/01/08 12:08:35;;;;;;;27.52;14.32;;;;;;;;;;5123961;28;20360;-46
2024/01/08 12:11:02;;;;;;;28.15;13.65;;;;;;;;;;5122787;28;20016;-47
2024/01/08 12:13:28;;;;;;;22.05;10.80;;;;;;;;;;5128233;28;20068;-48
2024/01/08 12:15:56;;;;;;;20.15;10.60;;;;;;;;;;5128078;28;20030;-47
2024/01/08 12:18:23;;;;;;;20.08;10.20;;;;;;;;;;5128265;28;20051;-52
2024/01/08 12:20:50;;;;;;;14.40;8.88;;;;;;;;;;5128262;28;20015;-49
2024/01/08 12:23:17;;;;;;;17.27;8.10;;;;;;;;;;5127883;28;20032;-50
2024/01/08 12:25:49;;;;;;;17.42;8.60;;;;;;;;;;5127823;28;20019;-51
2024/01/08 12:28:15;;;;;;;18.38;7.50;;;;;;;;;;5127574;28;20050;-55
2024/01/08 12:30:43;;;;;;;17.00;7.70;;;;;;;;;;5127637;28;20030;-51
2024/01/08 12:33:10;;;;;;;15.45;7.10;;;;;;;;;;5127672;28;20016;-53
2024/01/08 12:35:39;;;;;;;17.90;6.78;;;;;;;;;;5127622;28;20023;-54
2024/01/08 12:38:06;;;;;;;11.20;6.72;;;;;;;;;;5127377;28;20046;-52
2024/01/08 12:40:33;;;;;;;12.23;6.53;;;;;;;;;;5127590;28;20032;-50
2024/01/08 12:42:59;;;;;;;10.77;5.68;;;;;;;;;;5127456;28;20020;-49
2024/01/08 12:45:26;;;;;;;18.35;6.28;;;;;;;;;;5127617;28;20082;-51
2024/01/08 12:47:52;;;;;;;14.25;6.00;;;;;;;;;;5127389;28;20019;-51
2024/01/08 12:50:19;;;;;;;13.32;6.07;;;;;;;;;;5127312;28;20047;-49
2024/01/08 12:52:45;;;;;;;15.70;6.50;;;;;;;;;;5127182;28;20203;-55
2024/01/08 12:55:12;;;;;;;9.25;5.57;;;;;;;;;;5127700;28;20026;-57
2024/01/08 12:57:39;;;;;;;15.05;5.68;;;;;;;;;;5127238;28;20026;-48
2024/01/08 13:00:06;;;;;;;15.43;5.68;;;;;;;;;;5127528;28;20024;-51
2024/01/08 13:02:33;;;;;;;16.17;5.50;;;;;;;;;;5121492;28;20083;-54
2024/01/08 13:05:03;;;;;;;8.52;5.43;;;;;;;;;;5118042;28;20312;-55
2024/01/08 13:07:29;;;;;;;17.88;5.78;;;;;;;;;;5119079;28;20019;-52
2024/01/08 13:09:56;;;;;;;11.98;5.85;;;;;;;;;;5126844;28;20224;-52
2024/01/08 13:12:23;;;;;;;17.05;6.70;;;;;;;;;;5126909;28;20021;-50
2024/01/08 13:14:49;;;;;;;24.88;6.70;;;;;;;;;;5127199;28;20015;-50
2024/01/08 13:17:16;;;;;;;15.98;6.78;;;;;;;;;;5126779;28;20022;-52
2024/01/08 13:19:42;;;;;;;20.38;6.45;;;;;;;;;;5127117;28;20031;-53
2024/01/08 13:22:10;;;;;;;19.23;6.25;;;;;;;;;;5126660;28;20020;-54
2024/01/08 13:24:38;;;;;;;17.05;5.75;;;;;;;;;;5126326;28;20043;-52
2024/01/08 13:27:11;;;;;;;18.73;6.53;;;;;;;;;;5126654;28;20082;-53
2024/01/08 13:29:38;;;;;;;15.10;6.22;;;;;;;;;;5126822;28;20035;-56
2024/01/08 13:32:06;;;;;;;15.30;6.35;;;;;;;;;;5126538;28;20020;-53
2024/01/08 13:34:33;;;;;;;21.13;6.68;;;;;;;;;;5116990;28;20024;-52
2024/01/08 13:37:00;;;;;;;21.25;6.60;;;;;;;;;;5106009;28;20323;-52
2024/01/08 13:39:27;;;;;;;25.63;6.88;;;;;;;;;;5106444;28;20028;-48
2024/01/08 13:41:53;;;;;;;14.10;6.38;;;;;;;;;;5106100;28;20234;-48
2024/01/08 13:44:20;;;;;;;15.40;6.38;;;;;;;;;;5106149;28;20024;-49
2024/01/08 13:46:47;;;;;;;18.25;6.15;;;;;;;;;;5106018;28;20220;-55
2024/01/08 13:49:14;;;;;;;14.05;6.45;;;;;;;;;;5105920;28;20020;-57
2024/01/08 13:51:42;;;;;;;12.85;6.20;;;;;;;;;;5105671;28;20079;-50
2024/01/08 13:54:08;;;;;;;10.75;6.30;;;;;;;;;;5108797;28;20020;-58
2024/01/08 13:56:35;;;;;;;10.27;5.75;;;;;;;;;;5119600;28;20311;-54
2024/01/08 13:59:01;;;;;;;12.48;6.20;;;;;;;;;;5109463;28;20095;-49
2024/01/08 14:01:28;;;;;;;12.98;6.25;;;;;;;;;;5106438;28;20027;-50
2024/01/08 14:03:55;;;;;;;11.07;6.45;;;;;;;;;;5112060;28;20069;-52
2024/01/08 14:06:21;;;;;;;11.90;6.97;;;;;;;;;;5115169;28;20016;-49
2024/01/08 14:08:48;;;;;;;12.30;7.05;;;;;;;;;;5114272;28;20125;-48
2024/01/08 14:11:14;;;;;;;14.43;7.18;;;;;;;;;;5114383;28;20015;-55
2024/01/08 14:13:41;;;;;;;15.85;7.47;;;;;;;;;;5115139;28;20019;-48
2024/01/08 14:16:07;;;;;;;16.92;8.00;;;;;;;;;;5112295;28;20012;-50
2024/01/08 14:18:34;;;;;;;12.77;8.00;;;;;;;;;;5108124;28;20024;-49
2024/01/08 14:21:02;;;;;;;18.95;8.30;;;;;;;;;;5107722;28;20087;-57
2024/01/08 14:23:28;;;;;;;22.00;8.60;;;;;;;;;;5112474;28;20346;-51
2024/01/08 14:25:55;;;;;;;16.25;8.40;;;;;;;;;;5113058;28;20026;-49
2024/01/08 14:28:22;;;;;;;15.10;9.10;;;;;;;;;;5121007;28;20067;-50